Championnat de France Moyenne Distance (WRE) Gérardmer (88) - L : D65 / D70 / D75 / D80&+

Date : 04/05/2019
Distance : 1,880 km

Place Nom Licence Catégorie Club Temps min/km CN à J-60 Points Différence Nouveau CN
1 DEVILLE Nelly 2401 D70 5402GE 0:31:51 16'56 3743 4355 +612 3957
2 BONNET Christine 2400 D65 5402GE 0:32:04 17'03 4339 4326 -13 4093
3 CHALOPIN Catherine 3674 D65 2105BF 0:36:02 19'10 3768 3850 +82 3637
4 ROBERT Martine 1087 D70 7004BF 0:37:14 19'48 3536 3725 +189 3429
5 DUBROCA Monique 633 D70 3308NA 0:37:24 19'53 4192 3709 -483 4176
6 VILLEDIEU Martine 13752 D65 4201AR 0:39:15 20'52 3428 3534 +106 3316
7 PETIT Guyonne 4372 D65 7808IF 0:43:02 22'53 4190 3223 -967 4180
8 PERMINGEAT Helene 21054 D65 2606AR 0:46:30 24'44 1623 2983 +1360 2641
9 BARNIER Mireille 31459 D65 1303PZ 0:52:12 27'45 2633 2657 +24 2807
10 ENARD Monique 2664 D65 2101BF 0:52:16 27'48 3353 2654 -699 3099
11 MONTANARI Colette 2533 D70 5703GE 0:53:11 28'17 2511 2608 +97 2665
12 MOULIERE M-Bernadette 2888 D75 0207HF 0:57:09 30'23 2948 2427 -521 2853
13 LECOYER Annick 2885 D65 0207HF 0:58:03 30'52 2887 2390 -497 2757
14 THEVENON Catherine 29294 D65 1705NA 1:00:40 32'16 2631 2286 -345 2707
15 VOGT Christiane 2557 D70 6709GE 1:07:19 35'48 2430 2061 -369 2640
16 POGU Paulette 4671 D65 5402GE 1:08:27 36'24 2663 2026 -637 2652
17 ROLLET Marie-Madeleine 2413 D70 5413GE 1:09:03 36'43 2542 2009 -533 2252
18 OUDIN M-Reine 7574 D70 6804GE 1:10:49 37'40 3149 1959 -1190 3015
19 DIEUDONNE Madeleine 1380 D70 7808IF 1:24:56 45'10 3563 1633 -1930 3419
20 ULMER Claudine 11497 D70 1303PZ 1:25:39 45'33 2162 1620 -542 2110
21 ABISSE Gisele 701 D75 2508BF 1:34:27 50'14 2614 1469 -1145 2595
22 DESHAYES Jacqueline 13582 D65 4504CE 1:41:46 54'07 2236 1363 -873 2000
23 LUDEWIG-JAMES Carol 15894 D80 5907HF 2:10:12 69'15 1636 1065 -571 1518
RUAUD Agnes 739 D65 2508BF pm None 2357 0 2206
FEHLEN Jacqueline 20808 D75 5407GE pm None 1132 0 927
BASTIEN-FATH Nicole 8954 D70 5402GE pm None 1860 0 1880